Time;durP1;ratioP1;P1;durP2;ratioP2;P2;SDS_P1;SDS_P2;PMS_P1;PMS_P2;Temp;Humidity;BMP_temperature;BMP_pressure;BME280_temperature;BME280_humidity;BME280_pressure;Samples;Min_cycle;Max_cycle;Signal;HPM_P1;HPM_P2
2024/01/26 00:02:14;;;;;;;24.77;18.00;;;;;;;8.77;100.00;102333.13;5110625;28;20028;-39
2024/01/26 00:04:39;;;;;;;24.57;18.33;;;;;;;8.80;100.00;102328.41;5109934;28;20035;-39
2024/01/26 00:07:05;;;;;;;23.37;18.13;;;;;;;8.79;100.00;102330.28;5102292;28;20050;-39
2024/01/26 00:09:32;;;;;;;21.30;18.02;;;;;;;8.80;100.00;102315.75;5096360;28;20099;-39
2024/01/26 00:11:57;;;;;;;25.48;20.15;;;;;;;8.79;100.00;102319.47;5096560;28;20114;-39
2024/01/26 00:14:22;;;;;;;23.60;19.27;;;;;;;8.83;100.00;102328.84;5096394;28;20107;-39
2024/01/26 00:16:48;;;;;;;21.37;19.07;;;;;;;8.83;100.00;102325.31;5096208;28;20094;-39
2024/01/26 00:19:13;;;;;;;21.17;18.90;;;;;;;8.83;100.00;102314.53;5096940;28;20327;-39
2024/01/26 00:21:38;;;;;;;22.70;17.77;;;;;;;8.83;100.00;102312.66;5096126;28;20030;-39
2024/01/26 00:24:05;;;;;;;22.73;18.73;;;;;;;8.84;100.00;102319.75;5096014;28;20070;-39
2024/01/26 00:26:30;;;;;;;20.55;17.98;;;;;;;8.81;100.00;102306.63;5096294;28;20024;-40
2024/01/26 00:28:55;;;;;;;18.53;16.20;;;;;;;8.82;100.00;102305.59;5096259;28;20379;-40
2024/01/26 00:31:21;;;;;;;21.63;18.42;;;;;;;8.84;100.00;102311.66;5096554;28;20265;-40
2024/01/26 00:33:47;;;;;;;19.20;17.33;;;;;;;8.80;100.00;102298.72;5095888;28;20086;-40
2024/01/26 00:36:13;;;;;;;19.20;17.15;;;;;;;8.83;100.00;102306.44;5096068;28;20032;-39
2024/01/26 00:38:40;;;;;;;19.13;17.10;;;;;;;8.83;100.00;102307.28;5095790;28;20427;-40
2024/01/26 00:41:06;;;;;;;18.45;16.50;;;;;;;8.75;100.00;102293.88;5095717;28;20127;-40
2024/01/26 00:43:31;;;;;;;22.27;18.67;;;;;;;8.84;100.00;102305.44;5095666;28;20059;-40
2024/01/26 00:45:57;;;;;;;19.17;17.13;;;;;;;8.85;100.00;102316.03;5095958;28;20024;-40
2024/01/26 00:48:22;;;;;;;22.05;17.55;;;;;;;8.85;100.00;102307.94;5096168;28;20073;-40
2024/01/26 00:50:50;;;;;;;19.37;15.40;;;;;;;8.84;100.00;102300.88;5096450;28;20024;-40
2024/01/26 00:53:18;;;;;;;18.52;15.75;;;;;;;8.85;100.00;102297.16;5095500;28;20031;-40
2024/01/26 00:55:44;;;;;;;17.10;15.40;;;;;;;8.81;100.00;102284.22;5095729;28;20093;-40
2024/01/26 00:58:09;;;;;;;16.85;15.20;;;;;;;8.88;100.00;102296.78;5095803;28;20027;-40
2024/01/26 01:00:35;;;;;;;16.98;15.30;;;;;;;8.84;100.00;102289.25;5095917;28;20028;-40
2024/01/26 01:03:00;;;;;;;16.37;14.63;;;;;;;8.87;100.00;102294.25;5095700;28;20024;-40
2024/01/26 01:05:26;;;;;;;15.15;13.63;;;;;;;8.87;100.00;102294.25;5094995;28;20032;-40
2024/01/26 01:07:51;;;;;;;16.80;14.80;;;;;;;8.81;100.00;102284.22;5094987;28;20440;-40
2024/01/26 01:10:16;;;;;;;17.43;15.63;;;;;;;8.90;100.00;102286.66;5094996;28;20266;-40
2024/01/26 01:12:42;;;;;;;14.23;12.93;;;;;;;8.86;100.00;102282.63;5095778;28;20269;-40
2024/01/26 01:15:11;;;;;;;14.68;13.15;;;;;;;8.88;100.00;102283.31;5095316;28;20116;-40
2024/01/26 01:17:38;;;;;;;16.98;13.45;;;;;;;8.90;100.00;102291.22;5095496;28;20024;-40
2024/01/26 01:20:04;;;;;;;14.40;12.50;;;;;;;8.90;100.00;102289.34;5094031;28;20107;-40
2024/01/26 01:22:30;;;;;;;13.88;11.82;;;;;;;8.82;100.00;102270.53;5095512;28;20369;-40
2024/01/26 01:24:55;;;;;;;13.80;12.02;;;;;;;8.81;100.00;102263.47;5094878;28;20032;-40
2024/01/26 01:27:21;;;;;;;14.70;12.30;;;;;;;8.82;100.00;102265.16;5094876;28;20461;-40
2024/01/26 01:29:46;;;;;;;12.30;11.10;;;;;;;8.90;100.00;102267.75;5076731;28;20122;-40
2024/01/26 01:32:11;;;;;;;11.63;10.53;;;;;;;8.90;100.00;102259.66;5095119;28;20278;-40
2024/01/26 01:34:37;;;;;;;11.20;9.87;;;;;;;8.80;100.00;102242.94;5094957;28;20106;-40
2024/01/26 01:37:02;;;;;;;10.35;9.45;;;;;;;8.88;100.00;102259.03;5095240;28;20059;-40
2024/01/26 01:39:28;;;;;;;10.90;9.85;;;;;;;8.82;100.00;102253.50;5094669;28;20032;-40
2024/01/26 01:41:53;;;;;;;9.90;9.00;;;;;;;8.89;100.00;102259.88;5094953;28;20034;-40
2024/01/26 01:44:18;;;;;;;10.07;9.17;;;;;;;8.90;100.00;102254.28;5094518;28;20028;-40
2024/01/26 01:46:44;;;;;;;9.53;8.57;;;;;;;8.82;100.00;102242.72;5094531;28;20060;-40
2024/01/26 01:49:09;;;;;;;8.73;7.90;;;;;;;8.85;100.00;102242.38;5094375;28;20028;-40
2024/01/26 01:51:36;;;;;;;7.97;7.17;;;;;;;8.90;100.00;102248.03;5094979;28;20119;-40
2024/01/26 01:54:02;;;;;;;7.80;7.10;;;;;;;8.85;100.00;102243.19;5094334;28;20365;-40
2024/01/26 01:56:29;;;;;;;8.40;7.60;;;;;;;8.89;100.00;102252.59;5094232;28;20044;-40
2024/01/26 01:58:55;;;;;;;8.30;7.47;;;;;;;8.89;100.00;102241.81;5093995;28;20016;-40
2024/01/26 02:01:20;;;;;;;7.95;7.00;;;;;;;8.90;100.00;102237.25;5094514;28;20035;-40
2024/01/26 02:03:46;;;;;;;7.85;7.03;;;;;;;8.89;100.00;102228.31;5093891;28;20468;-40
2024/01/26 02:06:11;;;;;;;8.32;7.15;;;;;;;8.89;100.00;102222.94;5095277;28;20032;-40
2024/01/26 02:08:37;;;;;;;8.35;7.50;;;;;;;8.82;100.00;102216.59;5093761;28;20027;-40
2024/01/26 02:11:03;;;;;;;6.73;6.10;;;;;;;8.91;100.00;102231.66;5094698;28;20024;-40
2024/01/26 02:13:28;;;;;;;7.90;6.38;;;;;;;8.81;100.00;102209.53;5094275;28;20031;-40
2024/01/26 02:15:54;;;;;;;6.87;6.17;;;;;;;8.91;100.00;102222.75;5093666;28;20388;-40
2024/01/26 02:18:19;;;;;;;6.68;6.07;;;;;;;8.90;100.00;102215.66;5093921;28;20039;-40
2024/01/26 02:20:45;;;;;;;6.10;5.50;;;;;;;8.80;100.00;102198.94;5093681;28;20035;-40
2024/01/26 02:23:14;;;;;;;6.73;5.63;;;;;;;8.94;100.00;102219.69;5076612;28;20042;-40
2024/01/26 02:25:39;;;;;;;6.20;5.60;;;;;;;8.97;100.00;102206.63;5093621;28;20442;-40
2024/01/26 02:28:05;;;;;;;6.00;5.40;;;;;;;8.96;100.00;102191.47;5094360;28;20028;-40
2024/01/26 02:30:33;;;;;;;9.50;5.40;;;;;;;8.95;100.00;102192.50;5093844;28;20749;-40
2024/01/26 02:32:59;;;;;;;5.80;5.25;;;;;;;8.93;100.00;102185.59;5093991;28;20115;-40
2024/01/26 02:35:24;;;;;;;6.87;5.50;;;;;;;8.93;100.00;102183.78;5093411;28;20108;-40
2024/01/26 02:37:49;;;;;;;5.80;4.90;;;;;;;8.94;100.00;102171.13;5093805;28;20254;-40
2024/01/26 02:40:15;;;;;;;5.70;5.10;;;;;;;9.00;100.00;102184.69;5093394;28;20111;-40
2024/01/26 02:42:40;;;;;;;5.10;4.60;;;;;;;9.02;100.00;102184.47;5094222;28;20063;-40
2024/01/26 02:45:06;;;;;;;5.37;4.87;;;;;;;9.01;100.00;102183.66;5093451;28;20036;-38
2024/01/26 02:47:31;;;;;;;5.25;4.75;;;;;;;8.97;100.00;102178.81;5094178;28;20024;-38
2024/01/26 02:49:57;;;;;;;5.60;4.23;;;;;;;8.95;100.00;102181.72;5093473;28;20566;-38
2024/01/26 02:52:22;;;;;;;5.33;4.67;;;;;;;8.90;100.00;102164.41;5093531;28;20250;-38
2024/01/26 02:54:47;;;;;;;4.80;4.33;;;;;;;9.01;100.00;102169.31;5093397;28;20380;-38
2024/01/26 02:57:13;;;;;;;5.72;4.22;;;;;;;8.90;100.00;102149.06;5093933;28;20452;-38
2024/01/26 02:59:40;;;;;;;5.23;4.13;;;;;;;9.02;100.00;102163.72;5093401;28;20411;-38
2024/01/26 03:02:06;;;;;;;5.00;4.50;;;;;;;9.02;100.00;102158.34;5093354;28;20107;-38
2024/01/26 03:04:31;;;;;;;4.82;3.60;;;;;;;9.03;100.00;102153.81;5093340;28;20111;-39
2024/01/26 03:06:56;;;;;;;4.47;3.77;;;;;;;9.03;100.00;102151.94;5093438;28;20424;-39
2024/01/26 03:09:22;;;;;;;8.43;4.40;;;;;;;9.06;100.00;102156.09;5093328;28;20499;-39
2024/01/26 03:11:47;;;;;;;4.20;3.80;;;;;;;9.08;100.00;102145.09;5093635;28;20115;-39
2024/01/26 03:14:15;;;;;;;4.70;4.20;;;;;;;9.07;100.00;102152.38;5093764;28;20444;-39
2024/01/26 03:16:40;;;;;;;4.40;3.85;;;;;;;9.09;100.00;102152.22;5093706;28;20078;-39
2024/01/26 03:19:07;;;;;;;5.33;4.60;;;;;;;9.02;100.00;102122.44;5093534;28;20032;-39
2024/01/26 03:21:32;;;;;;;4.22;3.83;;;;;;;9.12;100.00;102125.66;5093719;28;20027;-39
2024/01/26 03:23:58;;;;;;;4.10;3.70;;;;;;;9.13;100.00;102121.13;5092932;28;20031;-39
2024/01/26 03:26:23;;;;;;;5.77;3.97;;;;;;;9.07;100.00;102105.66;5093980;28;20730;-39
2024/01/26 03:28:49;;;;;;;5.82;3.97;;;;;;;9.08;100.00;102102.81;5093647;28;20278;-39
2024/01/26 03:31:15;;;;;;;4.70;4.00;;;;;;;9.16;100.00;102108.06;5093405;28;20056;-39
2024/01/26 03:33:41;;;;;;;4.38;3.88;;;;;;;9.15;100.00;102103.69;5093140;28;20430;-39
2024/01/26 03:36:07;;;;;;;;;;;;;;;9.20;100.00;102095.03;5094267;28;20062;-39
2024/01/26 03:38:32;;;;;;;4.53;3.97;;;;;;;9.20;100.00;102101.25;5092971;28;19961;-39
2024/01/26 03:40:58;;;;;;;4.30;3.75;;;;;;;9.19;100.00;102098.75;5093355;28;20032;-39
2024/01/26 03:43:23;;;;;;;5.05;4.30;;;;;;;9.14;100.00;102090.41;5096583;28;20038;-39
2024/01/26 03:45:49;;;;;;;5.87;4.03;;;;;;;9.23;100.00;102097.34;5096883;28;20464;-39
2024/01/26 03:48:14;;;;;;;4.57;4.13;;;;;;;9.16;100.00;102080.25;5096464;28;20286;-39
2024/01/26 03:50:39;;;;;;;6.43;4.10;;;;;;;9.24;100.00;102093.63;5097054;28;20031;-39
2024/01/26 03:53:04;;;;;;;4.10;3.70;;;;;;;9.25;100.00;102098.81;5096770;28;20574;-39
2024/01/26 03:55:30;;;;;;;4.63;4.10;;;;;;;9.27;100.00;102082.41;5096375;28;20400;-39
2024/01/26 03:57:55;;;;;;;6.47;3.87;;;;;;;9.27;100.00;102066.22;5096393;28;20476;-39
2024/01/26 04:00:21;;;;;;;5.03;4.00;;;;;;;9.22;100.00;102055.16;5096565;28;20266;-39
2024/01/26 04:02:46;;;;;;;4.57;3.53;;;;;;;9.22;100.00;102055.16;5096835;28;20036;-39
2024/01/26 04:05:11;;;;;;;4.63;3.90;;;;;;;9.17;100.00;102046.81;5096785;28;20345;-39
2024/01/26 04:07:37;;;;;;;4.20;3.80;;;;;;;9.32;100.00;102068.34;5096461;28;20032;-39
2024/01/26 04:10:02;;;;;;;4.90;3.83;;;;;;;9.28;100.00;102076.03;5096401;28;20031;-39
2024/01/26 04:12:27;;;;;;;6.60;4.22;;;;;;;9.35;100.00;102076.06;5096427;28;20557;-39
2024/01/26 04:14:53;;;;;;;6.17;4.13;;;;;;;9.35;100.00;102054.47;5095886;28;20024;-39
2024/01/26 04:17:18;;;;;;;5.53;3.83;;;;;;;9.36;100.00;102051.56;5096310;28;20107;-39
2024/01/26 04:19:44;;;;;;;6.10;4.40;;;;;;;9.36;100.00;102043.47;5096160;28;20031;-39
2024/01/26 04:22:09;;;;;;;5.28;4.18;;;;;;;9.39;100.00;102040.41;5096966;28;20024;-39
2024/01/26 04:24:35;;;;;;;5.07;4.23;;;;;;;9.37;100.00;102020.88;5095861;28;20024;-39
2024/01/26 04:27:01;;;;;;;5.43;4.45;;;;;;;9.42;100.00;102026.53;5096384;28;20074;-39
2024/01/26 04:29:26;;;;;;;7.72;4.80;;;;;;;9.40;100.00;102012.38;5095728;28;20419;-39
2024/01/26 04:31:52;;;;;;;5.30;4.80;;;;;;;9.42;100.00;102012.16;5096238;28;20468;-39
2024/01/26 04:34:17;;;;;;;6.47;4.70;;;;;;;9.39;100.00;101991.81;5096782;28;20050;-39
2024/01/26 04:36:46;;;;;;;6.93;5.13;;;;;;;9.46;100.00;102014.28;5095788;28;20038;-39
2024/01/26 04:39:12;;;;;;;7.65;4.85;;;;;;;9.47;100.00;102020.53;5095740;28;20023;-39
2024/01/26 04:41:37;;;;;;;7.07;5.43;;;;;;;9.50;100.00;102014.72;5095863;28;20104;-39
2024/01/26 04:44:02;;;;;;;6.67;4.80;;;;;;;9.49;100.00;101992.31;5095371;28;20051;-39
2024/01/26 04:46:28;;;;;;;5.83;5.27;;;;;;;9.34;100.00;101963.72;5095970;28;20263;-39
2024/01/26 04:48:53;;;;;;;6.03;5.28;;;;;;;9.54;100.00;102005.22;5096145;28;20074;-39
2024/01/26 04:51:19;;;;;;;6.60;5.70;;;;;;;9.57;100.00;102020.22;5095685;28;20567;-39
2024/01/26 04:53:44;;;;;;;6.63;5.30;;;;;;;9.58;100.00;102029.97;5095452;28;20043;-42
2024/01/26 04:56:11;;;;;;;5.87;5.03;;;;;;;9.54;100.00;102022.25;5096179;28;20044;-39
2024/01/26 04:58:37;;;;;;;6.18;5.57;;;;;;;9.52;100.00;102008.13;5095420;28;20278;-39
2024/01/26 05:01:02;;;;;;;6.20;5.50;;;;;;;9.53;100.00;102006.25;5095692;28;20130;-39
2024/01/26 05:03:28;;;;;;;9.18;5.90;;;;;;;9.51;100.00;102001.03;5095284;28;20520;-39
2024/01/26 05:05:53;;;;;;;7.18;5.78;;;;;;;9.36;100.00;101984.09;5095347;28;20036;-39
2024/01/26 05:08:19;;;;;;;6.93;5.97;;;;;;;9.52;100.00;101988.38;5094978;28;20102;-39
2024/01/26 05:10:44;;;;;;;6.33;5.73;;;;;;;9.50;100.00;101983.16;5095034;28;20020;-39
2024/01/26 05:13:11;;;;;;;6.70;5.37;;;;;;;9.47;100.00;101980.88;5095157;28;20016;-39
2024/01/26 05:15:36;;;;;;;6.38;5.75;;;;;;;9.49;100.00;101981.50;5095020;28;20384;-39
2024/01/26 05:18:03;;;;;;;6.10;5.50;;;;;;;9.41;100.00;101962.75;5095084;28;20035;-39
2024/01/26 05:20:29;;;;;;;7.20;6.45;;;;;;;9.50;100.00;101975.06;5095557;28;20444;-39
2024/01/26 05:22:54;;;;;;;6.68;6.03;;;;;;;9.46;100.00;101960.28;5077734;28;20081;-39
2024/01/26 05:25:19;;;;;;;6.43;5.83;;;;;;;9.48;100.00;101947.44;5094711;28;20028;-39
2024/01/26 05:27:45;;;;;;;6.47;5.87;;;;;;;9.51;100.00;101962.41;5094988;28;20457;-39
2024/01/26 05:30:10;;;;;;;6.97;5.47;;;;;;;9.50;100.00;101949.94;5094613;28;20407;-39
2024/01/26 05:32:36;;;;;;;6.85;5.85;;;;;;;9.48;100.00;101954.72;5094493;28;20260;-39
2024/01/26 05:35:01;;;;;;;7.80;5.67;;;;;;;9.46;100.00;101948.66;5094697;28;20102;-39
2024/01/26 05:37:26;;;;;;;6.53;5.88;;;;;;;9.46;100.00;101943.25;5094420;28;20039;-39
2024/01/26 05:39:52;;;;;;;6.27;5.67;;;;;;;9.37;100.00;101928.22;5094970;28;20027;-39
2024/01/26 05:42:17;;;;;;;6.53;5.60;;;;;;;9.44;100.00;101931.81;5094430;28;20035;-39
2024/01/26 05:44:42;;;;;;;6.60;6.00;;;;;;;9.41;100.00;101919.53;5094858;28;20074;-39
2024/01/26 05:47:08;;;;;;;6.20;5.60;;;;;;;9.38;100.00;101919.13;5094786;28;20020;-39
2024/01/26 05:49:33;;;;;;;6.97;6.17;;;;;;;9.37;100.00;101918.28;5094550;28;20274;-39
2024/01/26 05:51:59;;;;;;;6.40;5.80;;;;;;;9.28;100.00;101919.47;5094989;28;20024;-39
2024/01/26 05:54:24;;;;;;;7.35;5.95;;;;;;;9.33;100.00;101933.22;5094474;28;20020;-39
2024/01/26 05:56:50;;;;;;;6.93;5.73;;;;;;;9.30;100.00;101917.38;5094764;28;20434;-39
2024/01/26 05:59:15;;;;;;;6.28;5.45;;;;;;;9.32;100.00;101927.97;5094770;28;20062;-39
2024/01/26 06:01:41;;;;;;;7.00;6.23;;;;;;;9.30;100.00;101917.38;5094555;28;20032;-39
2024/01/26 06:04:06;;;;;;;6.77;6.00;;;;;;;9.28;100.00;101924.88;5093790;28;20026;-39
2024/01/26 06:06:32;;;;;;;9.15;6.53;;;;;;;9.25;100.00;101917.97;5094697;28;20028;-39
2024/01/26 06:08:57;;;;;;;7.60;6.82;;;;;;;9.24;100.00;101900.13;5093764;28;20085;-39
2024/01/26 06:11:23;;;;;;;7.15;6.30;;;;;;;9.22;100.00;101917.53;5093838;28;20032;-39
2024/01/26 06:13:48;;;;;;;6.90;6.30;;;;;;;9.19;100.00;101901.75;5094585;28;20028;-39
2024/01/26 06:16:14;;;;;;;8.27;6.30;;;;;;;9.22;100.00;101902.19;5093976;28;20112;-39
2024/01/26 06:18:41;;;;;;;6.50;5.90;;;;;;;9.17;100.00;101901.09;5093934;28;20024;-39
2024/01/26 06:21:07;;;;;;;7.28;6.55;;;;;;;9.22;100.00;101901.34;5094004;28;20025;-39
2024/01/26 06:23:32;;;;;;;7.50;6.80;;;;;;;9.08;100.00;101864.47;5093861;28;20020;-39
2024/01/26 06:25:57;;;;;;;7.90;6.70;;;;;;;9.17;100.00;101893.00;5094237;28;20415;-39
2024/01/26 06:28:23;;;;;;;7.60;6.80;;;;;;;9.19;100.00;101890.94;5093762;28;20411;-39
2024/01/26 06:30:48;;;;;;;8.27;6.93;;;;;;;9.19;100.00;101886.38;5093837;28;20028;-39
2024/01/26 06:33:14;;;;;;;7.93;7.13;;;;;;;9.19;100.00;101893.66;5093708;28;20308;-39
2024/01/26 06:35:39;;;;;;;7.57;6.75;;;;;;;9.21;100.00;101905.91;5093386;28;20074;-39
2024/01/26 06:38:04;;;;;;;7.95;7.15;;;;;;;9.20;100.00;101895.31;5094202;28;20024;-39
2024/01/26 06:40:30;;;;;;;7.60;6.90;;;;;;;9.22;100.00;101907.59;5093614;28;20399;-39
2024/01/26 06:42:55;;;;;;;8.05;7.25;;;;;;;9.17;100.00;101891.13;5093898;28;20083;-39
2024/01/26 06:45:21;;;;;;;8.03;7.30;;;;;;;9.24;100.00;101892.03;5093666;28;20537;-39
2024/01/26 06:47:46;;;;;;;7.25;6.50;;;;;;;9.24;100.00;101893.91;5093586;28;20266;-39
2024/01/26 06:50:12;;;;;;;6.90;6.17;;;;;;;9.27;100.00;101882.69;5094355;28;20027;-39
2024/01/26 06:52:37;;;;;;;7.95;7.15;;;;;;;9.28;100.00;101885.22;5094419;28;20044;-39
2024/01/26 06:55:03;;;;;;;8.40;7.17;;;;;;;9.29;100.00;101877.94;5093342;28;20059;-39
2024/01/26 06:57:28;;;;;;;8.55;6.55;;;;;;;9.25;100.00;101873.97;5093460;28;20036;-39
2024/01/26 06:59:54;;;;;;;8.07;7.33;;;;;;;9.30;100.00;101887.69;5093509;28;20028;-39
2024/01/26 07:02:20;;;;;;;6.72;6.10;;;;;;;9.33;100.00;101873.81;5093231;28;20265;-39
2024/01/26 07:04:45;;;;;;;6.93;6.22;;;;;;;9.32;100.00;101888.34;5093405;28;20028;-39
2024/01/26 07:07:10;;;;;;;7.33;5.80;;;;;;;9.32;100.00;101885.66;5093228;28;20032;-39
2024/01/26 07:09:36;;;;;;;7.57;6.87;;;;;;;9.33;100.00;101873.81;5093381;28;20025;-39
2024/01/26 07:12:04;;;;;;;7.87;6.30;;;;;;;9.33;100.00;101873.81;5093433;28;20475;-39
2024/01/26 07:14:30;;;;;;;9.75;7.20;;;;;;;9.35;100.00;101870.91;5093575;28;20262;-39
2024/01/26 07:16:55;;;;;;;7.82;7.05;;;;;;;9.24;100.00;101840.75;5094979;28;20123;-39
2024/01/26 07:19:21;;;;;;;7.67;6.87;;;;;;;9.35;100.00;101847.44;5097343;28;20475;-39
2024/01/26 07:21:46;;;;;;;8.75;7.95;;;;;;;9.39;100.00;101856.81;5097640;28;20290;-39
2024/01/26 07:24:11;;;;;;;10.03;8.90;;;;;;;9.37;100.00;101839.16;5097336;28;20415;-39
2024/01/26 07:26:37;;;;;;;9.27;7.50;;;;;;;9.35;100.00;101843.91;5097567;28;20254;-39
2024/01/26 07:29:03;;;;;;;9.88;8.88;;;;;;;9.29;100.00;101840.97;5097760;28;20024;-39
2024/01/26 07:31:28;;;;;;;8.45;7.55;;;;;;;9.45;100.00;101860.59;5098069;28;20036;-39
2024/01/26 07:33:53;;;;;;;9.30;8.40;;;;;;;9.49;100.00;101853.75;5097136;28;20028;-39
2024/01/26 07:36:19;;;;;;;8.37;7.50;;;;;;;9.50;100.00;101839.22;5097351;28;20059;-39
2024/01/26 07:38:44;;;;;;;8.03;7.30;;;;;;;9.52;100.00;101843.41;5097101;28;20044;-39
2024/01/26 07:41:09;;;;;;;7.73;6.97;;;;;;;9.55;100.00;101839.47;5097080;28;20373;-39
2024/01/26 07:43:35;;;;;;;7.60;6.90;;;;;;;9.57;100.00;101860.88;5096924;28;20410;-39
2024/01/26 07:46:00;;;;;;;8.13;7.10;;;;;;;9.63;100.00;101858.22;5096907;28;20269;-39
2024/01/26 07:48:25;;;;;;;6.90;6.20;;;;;;;9.59;100.00;101856.09;5097166;28;20026;-39
2024/01/26 07:50:51;;;;;;;6.57;5.97;;;;;;;9.59;100.00;101856.94;5096928;28;20147;-39
2024/01/26 07:53:17;;;;;;;7.10;6.40;;;;;;;9.71;100.00;101884.19;5097373;28;20028;-39
2024/01/26 07:55:42;;;;;;;6.60;5.95;;;;;;;9.75;100.00;101888.16;5096362;28;20105;-39
2024/01/26 07:58:07;;;;;;;6.53;5.93;;;;;;;9.76;100.00;101881.72;5096432;28;20044;-39
2024/01/26 08:00:33;;;;;;;8.27;6.50;;;;;;;9.75;100.00;101882.78;5096505;28;20099;-39
2024/01/26 08:02:59;;;;;;;8.80;7.00;;;;;;;9.76;100.00;101892.53;5096808;28;20048;-39
2024/01/26 08:05:24;;;;;;;6.30;5.75;;;;;;;9.77;100.00;101891.53;5096150;28;20027;-39
2024/01/26 08:07:50;;;;;;;6.90;6.20;;;;;;;9.79;100.00;101884.88;5097291;28;20074;-39
2024/01/26 08:10:15;;;;;;;6.80;6.20;;;;;;;9.82;100.00;101885.53;5096362;28;20085;-39
2024/01/26 08:12:40;;;;;;;6.70;6.00;;;;;;;9.88;100.00;101890.13;5096359;28;20128;-39
2024/01/26 08:15:06;;;;;;;7.03;6.32;;;;;;;9.95;100.00;101904.47;5096123;28;20028;-39
2024/01/26 08:17:32;;;;;;;5.82;5.32;;;;;;;9.98;100.00;101906.78;5096767;28;20062;-39
2024/01/26 08:19:58;;;;;;;6.50;5.90;;;;;;;10.02;100.00;101910.75;5096195;28;20081;-39
2024/01/26 08:22:25;;;;;;;6.97;5.60;;;;;;;9.94;100.00;101887.44;5096924;28;20024;-39
2024/01/26 08:24:51;;;;;;;6.68;6.07;;;;;;;9.96;100.00;101892.66;5095736;28;20533;-39
2024/01/26 08:27:16;;;;;;;6.10;5.43;;;;;;;10.04;100.00;101900.56;5095328;28;20025;-39
2024/01/26 08:29:41;;;;;;;6.20;5.60;;;;;;;9.86;100.00;101871.41;5096794;28;20093;-39
2024/01/26 08:32:07;;;;;;;6.22;5.63;;;;;;;10.00;100.00;101902.88;5096006;28;20059;-39
2024/01/26 08:34:32;;;;;;;6.20;5.57;;;;;;;10.09;100.00;101924.28;5095614;28;20396;-39
2024/01/26 08:36:58;;;;;;;6.15;5.43;;;;;;;10.10;100.00;101928.66;5095596;28;20058;-39
2024/01/26 08:39:23;;;;;;;6.47;5.70;;;;;;;10.09;100.00;101918.88;5096336;28;20065;-39
2024/01/26 08:41:49;;;;;;;6.23;5.63;;;;;;;10.09;100.00;101916.19;5096043;28;20110;-39
2024/01/26 08:44:14;;;;;;;5.70;5.15;;;;;;;10.11;100.00;101914.13;5095396;28;20364;-39
2024/01/26 08:46:40;;;;;;;6.07;5.53;;;;;;;10.04;100.00;101896.00;5095425;28;20048;-39
2024/01/26 08:49:08;;;;;;;5.90;5.40;;;;;;;10.16;100.00;101917.06;5096175;28;20098;-39
2024/01/26 08:51:34;;;;;;;6.32;5.60;;;;;;;10.17;100.00;101908.75;5095552;28;20381;-39
2024/01/26 08:53:59;;;;;;;6.70;6.00;;;;;;;10.20;100.00;101907.47;5096397;28;20102;-39
2024/01/26 08:56:25;;;;;;;6.63;6.03;;;;;;;10.19;100.00;101914.75;5095995;28;20052;-39
2024/01/26 08:58:51;;;;;;;6.40;5.80;;;;;;;10.18;100.00;101909.56;5095233;28;20103;-39
2024/01/26 09:01:16;;;;;;;7.53;5.97;;;;;;;10.21;100.00;101917.28;5095239;28;20027;-39
2024/01/26 09:03:41;;;;;;;6.63;6.03;;;;;;;10.22;100.00;101929.75;5095402;28;20472;-39
2024/01/26 09:06:08;;;;;;;6.93;6.33;;;;;;;10.24;100.00;101922.28;5095337;28;20439;-39
2024/01/26 09:08:33;;;;;;;;;;;;;;;10.25;100.00;101932.94;5095980;28;20301;-39
2024/01/26 09:10:59;;;;;;;8.20;5.80;;;;;;;10.24;100.00;101927.72;5095226;28;20364;-39
2024/01/26 09:13:25;;;;;;;5.47;4.97;;;;;;;10.23;100.00;101947.63;5095252;28;20032;-39
2024/01/26 09:15:50;;;;;;;5.20;4.70;;;;;;;10.23;100.00;101970.09;5095664;28;20478;-39
2024/01/26 09:18:15;;;;;;;3.83;3.50;;;;;;;10.09;100.00;101970.22;5076936;28;20058;-39
2024/01/26 09:20:41;;;;;;;4.20;3.40;;;;;;;10.12;100.00;101997.72;5095935;28;20262;-39
2024/01/26 09:23:07;;;;;;;5.05;2.42;;;;;;;10.06;100.00;102010.16;5094711;28;20032;-39
2024/01/26 09:25:32;;;;;;;2.70;1.40;;;;;;;9.97;100.00;102010.50;5094989;28;20032;-39
2024/01/26 09:27:57;;;;;;;3.10;1.33;;;;;;;9.93;100.00;102007.38;5095302;28;20026;-39
2024/01/26 09:30:23;;;;;;;2.80;1.15;;;;;;;9.90;100.00;102034.75;5095140;28;20746;-39
2024/01/26 09:32:48;;;;;;;5.50;1.40;;;;;;;9.89;100.00;102019.59;5095698;28;20032;-39
2024/01/26 09:35:14;;;;;;;3.23;1.20;;;;;;;9.79;100.00;101992.09;5094730;28;20032;-39
2024/01/26 09:37:40;;;;;;;5.13;1.73;;;;;;;9.86;100.00;102044.31;5094773;28;20266;-40
2024/01/26 09:40:06;;;;;;;9.02;1.80;;;;;;;9.78;100.00;102015.56;5094144;28;20035;-40
2024/01/26 09:42:31;;;;;;;7.03;1.75;;;;;;;9.84;100.00;102054.47;5094693;28;20542;-39
2024/01/26 09:44:57;;;;;;;9.35;2.03;;;;;;;9.80;100.00;102078.34;5094707;28;20032;-39
2024/01/26 09:47:25;;;;;;;5.07;1.52;;;;;;;9.66;100.00;102083.81;5094321;28;20081;-39
2024/01/26 09:49:55;;;;;;;5.20;1.05;;;;;;;9.49;100.00;102092.22;5094220;28;20081;-39
2024/01/26 09:52:21;;;;;;;5.78;1.40;;;;;;;9.44;100.00;102113.56;5095263;28;20035;-39
2024/01/26 09:54:47;;;;;;;5.57;1.30;;;;;;;9.34;100.00;102109.50;5093835;28;20446;-39
2024/01/26 09:57:13;;;;;;;;;;;;;;;9.44;100.00;102135.16;5095049;28;20457;-39
2024/01/26 09:59:38;;;;;;;3.70;1.30;;;;;;;9.32;100.00;102125.91;5094304;28;19926;-39
2024/01/26 10:02:03;;;;;;;7.17;1.70;;;;;;;9.31;100.00;102150.38;5095113;28;20028;-39
2024/01/26 10:04:29;;;;;;;5.70;1.33;;;;;;;9.31;100.00;102167.41;5094598;28;20734;-39
2024/01/26 10:06:55;;;;;;;4.75;1.42;;;;;;;9.22;100.00;102158.59;5094020;28;20316;-39
2024/01/26 10:09:22;;;;;;;7.43;1.70;;;;;;;9.28;100.00;102184.00;5093935;28;20040;-39
2024/01/26 10:11:48;;;;;;;5.50;1.50;;;;;;;9.24;100.00;102194.31;5094167;28;20032;-39
2024/01/26 10:14:23;;;;;;;4.07;1.43;;;;;;;9.14;100.00;102180.28;5094042;28;20073;-39
2024/01/26 10:16:58;;;;;;;5.30;1.58;;;;;;;9.19;100.00;102191.34;5094256;28;20487;-39
2024/01/26 10:19:25;;;;;;;5.03;1.38;;;;;;;9.17;100.00;102184.47;5094242;28;20069;-39
2024/01/26 10:21:52;;;;;;;6.43;1.60;;;;;;;9.06;100.00;102187.66;5094175;28;20381;-39
2024/01/26 10:24:22;;;;;;;7.45;1.83;;;;;;;9.07;100.00;102200.09;5093944;28;20024;-39
2024/01/26 10:26:47;;;;;;;7.63;1.70;;;;;;;9.09;100.00;102211.56;5094145;28;20035;-39
2024/01/26 10:29:13;;;;;;;9.63;2.10;;;;;;;9.13;100.00;102229.06;5093808;28;20046;-39
2024/01/26 10:31:41;;;;;;;8.50;1.70;;;;;;;9.09;100.00;102239.38;5094103;28;20063;-39
2024/01/26 10:34:12;;;;;;;9.15;2.30;;;;;;;9.08;100.00;102236.84;5093700;28;20493;-39
2024/01/26 10:36:45;;;;;;;5.40;1.55;;;;;;;9.11;100.00;102239.19;5093616;28;20027;-39
2024/01/26 10:39:29;;;;;;;7.40;1.60;;;;;;;9.21;100.00;102245.13;5093996;28;20024;-39
2024/01/26 10:42:03;;;;;;;7.20;2.10;;;;;;;9.28;100.00;102259.56;5093629;28;20024;-39
2024/01/26 10:44:29;;;;;;;7.78;2.30;;;;;;;9.34;100.00;102257.97;5093904;28;20086;-39
2024/01/26 10:46:58;;;;;;;7.68;1.77;;;;;;;9.41;100.00;102265.13;5093902;28;20032;-39
2024/01/26 10:49:25;;;;;;;8.75;1.75;;;;;;;9.40;100.00;102285.06;5093427;28;20034;-40
2024/01/26 10:51:54;;;;;;;6.75;2.10;;;;;;;9.35;100.00;102300.13;5093668;28;20031;-39
2024/01/26 10:54:25;;;;;;;6.28;1.80;;;;;;;9.24;100.00;102290.66;5093215;28;20020;-39
2024/01/26 10:56:50;;;;;;;7.72;1.95;;;;;;;9.11;100.00;102301.25;5093929;28;20094;-39
2024/01/26 10:59:17;;;;;;;6.72;1.85;;;;;;;9.09;100.00;102314.13;5093977;28;20056;-39
2024/01/26 11:01:44;;;;;;;7.03;1.35;;;;;;;8.85;100.00;102310.66;5093448;28;20035;-40
2024/01/26 11:04:11;;;;;;;3.55;0.85;;;;;;;8.84;100.00;102311.66;5093980;28;20114;-39
2024/01/26 11:06:39;;;;;;;4.88;1.10;;;;;;;8.89;100.00;102330.84;5094224;28;20342;-39
2024/01/26 11:09:08;;;;;;;3.83;0.90;;;;;;;8.94;100.00;102341.91;5093610;28;20093;-39
2024/01/26 11:11:35;;;;;;;5.50;1.00;;;;;;;8.92;100.00;102335.00;5094148;28;20068;-39
2024/01/26 11:14:02;;;;;;;3.10;1.00;;;;;;;9.01;100.00;102359.03;5093019;28;20464;-39
2024/01/26 11:16:35;;;;;;;4.93;1.23;;;;;;;8.98;100.00;102342.41;5093562;28;20027;-40